sensor_id;sensor_type;location;lat;lon;timestamp;temperature;humidity
6724;DHT22;3399;52.530;13.304;2023-10-31T00:01:58;14.10;99.90
6724;DHT22;3399;52.530;13.304;2023-10-31T00:04:24;14.00;99.90
6724;DHT22;3399;52.530;13.304;2023-10-31T00:06:49;14.10;99.90
6724;DHT22;3399;52.530;13.304;2023-10-31T00:09:15;14.20;99.90
6724;DHT22;3399;52.530;13.304;2023-10-31T00:11:41;14.30;99.90
6724;DHT22;3399;52.530;13.304;2023-10-31T00:14:07;14.40;99.90
6724;DHT22;3399;52.530;13.304;2023-10-31T00:16:33;14.40;99.90
6724;DHT22;3399;52.530;13.304;2023-10-31T00:18:59;14.50;99.90
6724;DHT22;3399;52.530;13.304;2023-10-31T00:21:24;14.50;99.90
6724;DHT22;3399;52.530;13.304;2023-10-31T00:23:50;14.50;99.90
6724;DHT22;3399;52.530;13.304;2023-10-31T00:26:16;14.50;99.90
6724;DHT22;3399;52.530;13.304;2023-10-31T00:28:41;14.50;99.90
6724;DHT22;3399;52.530;13.304;2023-10-31T00:31:07;14.40;99.90
6724;DHT22;3399;52.530;13.304;2023-10-31T00:33:34;14.30;99.90
6724;DHT22;3399;52.530;13.304;2023-10-31T00:35:59;14.20;99.90
6724;DHT22;3399;52.530;13.304;2023-10-31T00:38:25;14.10;99.90
6724;DHT22;3399;52.530;13.304;2023-10-31T00:40:51;14.00;99.90
6724;DHT22;3399;52.530;13.304;2023-10-31T00:43:16;14.10;99.90
6724;DHT22;3399;52.530;13.304;2023-10-31T00:45:41;14.20;99.90
6724;DHT22;3399;52.530;13.304;2023-10-31T00:48:07;14.10;99.90
6724;DHT22;3399;52.530;13.304;2023-10-31T00:50:32;14.20;99.90
6724;DHT22;3399;52.530;13.304;2023-10-31T00:52:58;14.10;99.90
6724;DHT22;3399;52.530;13.304;2023-10-31T00:55:23;14.10;99.90
6724;DHT22;3399;52.530;13.304;2023-10-31T00:57:50;14.10;99.90
6724;DHT22;3399;52.530;13.304;2023-10-31T01:00:16;14.20;99.90
6724;DHT22;3399;52.530;13.304;2023-10-31T01:02:41;14.20;99.90
6724;DHT22;3399;52.530;13.304;2023-10-31T01:05:07;14.20;99.90
6724;DHT22;3399;52.530;13.304;2023-10-31T01:07:34;14.40;99.90
6724;DHT22;3399;52.530;13.304;2023-10-31T01:09:59;14.30;99.90
6724;DHT22;3399;52.530;13.304;2023-10-31T01:12:25;14.30;99.90
6724;DHT22;3399;52.530;13.304;2023-10-31T01:14:53;14.20;99.90
6724;DHT22;3399;52.530;13.304;2023-10-31T01:17:19;13.80;99.90
6724;DHT22;3399;52.530;13.304;2023-10-31T01:19:44;13.60;99.90
6724;DHT22;3399;52.530;13.304;2023-10-31T01:22:10;13.70;99.90
6724;DHT22;3399;52.530;13.304;2023-10-31T01:24:35;13.80;99.90
6724;DHT22;3399;52.530;13.304;2023-10-31T01:27:00;13.90;99.90
6724;DHT22;3399;52.530;13.304;2023-10-31T01:29:26;13.90;99.90
6724;DHT22;3399;52.530;13.304;2023-10-31T01:31:51;13.90;99.90
6724;DHT22;3399;52.530;13.304;2023-10-31T01:34:17;13.90;99.90
6724;DHT22;3399;52.530;13.304;2023-10-31T01:36:42;13.90;99.90
6724;DHT22;3399;52.530;13.304;2023-10-31T01:39:08;13.90;99.90
6724;DHT22;3399;52.530;13.304;2023-10-31T01:41:35;14.10;99.90
6724;DHT22;3399;52.530;13.304;2023-10-31T01:44:00;14.30;99.90
6724;DHT22;3399;52.530;13.304;2023-10-31T01:46:26;14.30;99.90
6724;DHT22;3399;52.530;13.304;2023-10-31T01:48:51;14.30;99.90
6724;DHT22;3399;52.530;13.304;2023-10-31T01:51:17;14.30;99.90
6724;DHT22;3399;52.530;13.304;2023-10-31T01:53:43;14.10;99.90
6724;DHT22;3399;52.530;13.304;2023-10-31T01:56:08;14.00;99.90
6724;DHT22;3399;52.530;13.304;2023-10-31T01:58:35;13.90;99.90
6724;DHT22;3399;52.530;13.304;2023-10-31T02:01:01;13.90;99.90
6724;DHT22;3399;52.530;13.304;2023-10-31T02:03:30;13.90;99.90
6724;DHT22;3399;52.530;13.304;2023-10-31T02:05:56;13.80;99.90
6724;DHT22;3399;52.530;13.304;2023-10-31T02:08:24;13.90;99.90
6724;DHT22;3399;52.530;13.304;2023-10-31T02:10:49;13.70;99.90
6724;DHT22;3399;52.530;13.304;2023-10-31T02:13:16;13.70;99.90
6724;DHT22;3399;52.530;13.304;2023-10-31T02:15:42;13.50;99.90
6724;DHT22;3399;52.530;13.304;2023-10-31T02:18:08;13.60;99.90
6724;DHT22;3399;52.530;13.304;2023-10-31T02:20:34;13.80;99.90
6724;DHT22;3399;52.530;13.304;2023-10-31T02:23:02;13.90;99.90
6724;DHT22;3399;52.530;13.304;2023-10-31T02:25:27;13.90;99.90
6724;DHT22;3399;52.530;13.304;2023-10-31T02:27:53;13.80;99.90
6724;DHT22;3399;52.530;13.304;2023-10-31T02:30:19;13.80;99.90
6724;DHT22;3399;52.530;13.304;2023-10-31T02:32:44;13.80;99.90
6724;DHT22;3399;52.530;13.304;2023-10-31T02:35:11;13.60;99.90
6724;DHT22;3399;52.530;13.304;2023-10-31T02:37:37;13.60;99.90
6724;DHT22;3399;52.530;13.304;2023-10-31T02:40:03;13.80;99.90
6724;DHT22;3399;52.530;13.304;2023-10-31T02:42:29;13.90;99.90
6724;DHT22;3399;52.530;13.304;2023-10-31T02:44:54;14.10;99.90
6724;DHT22;3399;52.530;13.304;2023-10-31T02:47:20;14.20;99.90
6724;DHT22;3399;52.530;13.304;2023-10-31T02:49:45;14.20;99.90
6724;DHT22;3399;52.530;13.304;2023-10-31T02:52:11;14.20;99.90
6724;DHT22;3399;52.530;13.304;2023-10-31T02:54:37;14.20;99.90
6724;DHT22;3399;52.530;13.304;2023-10-31T02:57:02;14.10;99.90
6724;DHT22;3399;52.530;13.304;2023-10-31T02:59:28;14.10;99.90
6724;DHT22;3399;52.530;13.304;2023-10-31T03:01:55;14.10;99.90
6724;DHT22;3399;52.530;13.304;2023-10-31T03:04:21;14.00;99.90
6724;DHT22;3399;52.530;13.304;2023-10-31T03:06:46;14.00;99.90
6724;DHT22;3399;52.530;13.304;2023-10-31T03:09:12;13.70;99.90
6724;DHT22;3399;52.530;13.304;2023-10-31T03:11:37;13.60;99.90
6724;DHT22;3399;52.530;13.304;2023-10-31T03:14:03;13.50;99.90
6724;DHT22;3399;52.530;13.304;2023-10-31T03:16:28;13.50;99.90
6724;DHT22;3399;52.530;13.304;2023-10-31T03:18:54;13.40;99.90
6724;DHT22;3399;52.530;13.304;2023-10-31T03:21:19;13.40;99.90
6724;DHT22;3399;52.530;13.304;2023-10-31T03:23:49;13.50;99.90
6724;DHT22;3399;52.530;13.304;2023-10-31T03:26:17;13.50;99.90
6724;DHT22;3399;52.530;13.304;2023-10-31T03:28:43;13.60;99.90
6724;DHT22;3399;52.530;13.304;2023-10-31T03:31:10;13.70;99.90
6724;DHT22;3399;52.530;13.304;2023-10-31T03:33:35;13.60;99.90
6724;DHT22;3399;52.530;13.304;2023-10-31T03:36:01;13.70;99.90
6724;DHT22;3399;52.530;13.304;2023-10-31T03:38:27;13.80;99.90
6724;DHT22;3399;52.530;13.304;2023-10-31T03:40:52;13.80;99.90
6724;DHT22;3399;52.530;13.304;2023-10-31T03:43:18;13.60;99.90
6724;DHT22;3399;52.530;13.304;2023-10-31T03:45:43;13.60;99.90
6724;DHT22;3399;52.530;13.304;2023-10-31T03:48:09;13.60;99.90
6724;DHT22;3399;52.530;13.304;2023-10-31T03:50:35;13.70;99.90
6724;DHT22;3399;52.530;13.304;2023-10-31T03:53:00;13.70;99.90
6724;DHT22;3399;52.530;13.304;2023-10-31T03:55:26;13.50;99.90
6724;DHT22;3399;52.530;13.304;2023-10-31T03:57:51;13.30;99.90
6724;DHT22;3399;52.530;13.304;2023-10-31T04:00:17;13.40;99.90
6724;DHT22;3399;52.530;13.304;2023-10-31T04:02:42;13.40;99.90
6724;DHT22;3399;52.530;13.304;2023-10-31T04:05:08;13.40;99.90
6724;DHT22;3399;52.530;13.304;2023-10-31T04:07:34;13.30;99.90
6724;DHT22;3399;52.530;13.304;2023-10-31T04:09:59;13.20;99.90
6724;DHT22;3399;52.530;13.304;2023-10-31T04:12:25;13.40;99.90
6724;DHT22;3399;52.530;13.304;2023-10-31T04:14:50;13.30;99.90
6724;DHT22;3399;52.530;13.304;2023-10-31T04:17:16;13.30;99.90
6724;DHT22;3399;52.530;13.304;2023-10-31T04:19:41;13.10;99.90
6724;DHT22;3399;52.530;13.304;2023-10-31T04:22:07;12.90;99.90
6724;DHT22;3399;52.530;13.304;2023-10-31T04:24:32;13.00;99.90
6724;DHT22;3399;52.530;13.304;2023-10-31T04:26:58;13.00;99.90
6724;DHT22;3399;52.530;13.304;2023-10-31T04:29:23;12.90;99.90
6724;DHT22;3399;52.530;13.304;2023-10-31T04:31:49;12.60;99.90
6724;DHT22;3399;52.530;13.304;2023-10-31T04:34:14;12.60;99.90
6724;DHT22;3399;52.530;13.304;2023-10-31T04:36:40;12.60;99.90
6724;DHT22;3399;52.530;13.304;2023-10-31T04:39:06;12.50;99.90
6724;DHT22;3399;52.530;13.304;2023-10-31T04:41:31;12.30;99.90
6724;DHT22;3399;52.530;13.304;2023-10-31T04:43:57;12.50;99.90
6724;DHT22;3399;52.530;13.304;2023-10-31T04:46:24;12.60;99.90
6724;DHT22;3399;52.530;13.304;2023-10-31T04:48:50;12.70;99.90
6724;DHT22;3399;52.530;13.304;2023-10-31T04:51:15;12.50;99.90
6724;DHT22;3399;52.530;13.304;2023-10-31T04:53:41;12.40;99.90
6724;DHT22;3399;52.530;13.304;2023-10-31T04:56:12;12.30;99.90
6724;DHT22;3399;52.530;13.304;2023-10-31T04:58:39;12.30;99.90
6724;DHT22;3399;52.530;13.304;2023-10-31T05:01:08;12.30;99.90
6724;DHT22;3399;52.530;13.304;2023-10-31T05:03:34;12.30;99.90
6724;DHT22;3399;52.530;13.304;2023-10-31T05:05:59;12.50;99.90
6724;DHT22;3399;52.530;13.304;2023-10-31T05:08:25;12.60;99.90
6724;DHT22;3399;52.530;13.304;2023-10-31T05:10:50;12.70;99.90
6724;DHT22;3399;52.530;13.304;2023-10-31T05:13:16;12.70;99.90
6724;DHT22;3399;52.530;13.304;2023-10-31T05:15:41;12.50;99.90
6724;DHT22;3399;52.530;13.304;2023-10-31T05:18:07;12.40;99.90
6724;DHT22;3399;52.530;13.304;2023-10-31T05:20:32;12.30;99.90
6724;DHT22;3399;52.530;13.304;2023-10-31T05:22:58;12.30;99.90
6724;DHT22;3399;52.530;13.304;2023-10-31T05:25:23;12.40;99.90
6724;DHT22;3399;52.530;13.304;2023-10-31T05:27:48;12.40;99.90
6724;DHT22;3399;52.530;13.304;2023-10-31T05:30:14;12.40;99.90
6724;DHT22;3399;52.530;13.304;2023-10-31T05:32:40;12.30;99.90
6724;DHT22;3399;52.530;13.304;2023-10-31T05:35:05;12.20;99.90
6724;DHT22;3399;52.530;13.304;2023-10-31T05:37:31;12.20;99.90
6724;DHT22;3399;52.530;13.304;2023-10-31T05:39:56;12.30;99.90
6724;DHT22;3399;52.530;13.304;2023-10-31T05:42:22;12.30;99.90
6724;DHT22;3399;52.530;13.304;2023-10-31T05:44:48;12.50;99.90
6724;DHT22;3399;52.530;13.304;2023-10-31T05:47:14;12.50;99.90
6724;DHT22;3399;52.530;13.304;2023-10-31T05:49:42;12.50;99.90
6724;DHT22;3399;52.530;13.304;2023-10-31T05:52:08;12.40;99.90
6724;DHT22;3399;52.530;13.304;2023-10-31T05:54:33;12.50;99.90
6724;DHT22;3399;52.530;13.304;2023-10-31T05:56:59;12.30;99.90
6724;DHT22;3399;52.530;13.304;2023-10-31T05:59:25;12.40;99.90
6724;DHT22;3399;52.530;13.304;2023-10-31T06:01:50;12.70;99.90
6724;DHT22;3399;52.530;13.304;2023-10-31T06:04:16;12.60;99.90
6724;DHT22;3399;52.530;13.304;2023-10-31T06:06:41;12.70;99.90
6724;DHT22;3399;52.530;13.304;2023-10-31T06:09:07;12.80;99.90
6724;DHT22;3399;52.530;13.304;2023-10-31T06:11:34;12.80;99.90
6724;DHT22;3399;52.530;13.304;2023-10-31T06:13:59;12.80;99.90
6724;DHT22;3399;52.530;13.304;2023-10-31T06:16:25;12.90;99.90
6724;DHT22;3399;52.530;13.304;2023-10-31T06:18:50;12.90;99.90
6724;DHT22;3399;52.530;13.304;2023-10-31T06:21:16;13.00;99.90
6724;DHT22;3399;52.530;13.304;2023-10-31T06:23:41;12.90;99.90
6724;DHT22;3399;52.530;13.304;2023-10-31T06:26:10;12.70;99.90
6724;DHT22;3399;52.530;13.304;2023-10-31T06:28:36;12.80;99.90
6724;DHT22;3399;52.530;13.304;2023-10-31T06:31:03;12.80;99.90
6724;DHT22;3399;52.530;13.304;2023-10-31T06:33:29;12.90;99.90
6724;DHT22;3399;52.530;13.304;2023-10-31T06:35:55;13.00;99.90
6724;DHT22;3399;52.530;13.304;2023-10-31T06:38:23;13.00;99.90
6724;DHT22;3399;52.530;13.304;2023-10-31T06:40:49;13.00;99.90
6724;DHT22;3399;52.530;13.304;2023-10-31T06:43:15;13.00;99.90
6724;DHT22;3399;52.530;13.304;2023-10-31T06:45:40;13.00;99.90
6724;DHT22;3399;52.530;13.304;2023-10-31T06:48:06;13.00;99.90
6724;DHT22;3399;52.530;13.304;2023-10-31T06:50:34;12.90;99.90
6724;DHT22;3399;52.530;13.304;2023-10-31T06:52:59;12.80;99.90
6724;DHT22;3399;52.530;13.304;2023-10-31T06:55:25;12.90;99.90
6724;DHT22;3399;52.530;13.304;2023-10-31T06:57:50;12.90;99.90
6724;DHT22;3399;52.530;13.304;2023-10-31T07:00:16;13.10;99.90
6724;DHT22;3399;52.530;13.304;2023-10-31T07:02:42;13.00;99.90
6724;DHT22;3399;52.530;13.304;2023-10-31T07:05:07;12.90;99.90
6724;DHT22;3399;52.530;13.304;2023-10-31T07:07:33;12.90;99.90
6724;DHT22;3399;52.530;13.304;2023-10-31T07:09:58;13.00;99.90
6724;DHT22;3399;52.530;13.304;2023-10-31T07:12:24;13.00;99.90
6724;DHT22;3399;52.530;13.304;2023-10-31T07:14:50;13.10;99.90
6724;DHT22;3399;52.530;13.304;2023-10-31T07:17:15;13.10;99.90
6724;DHT22;3399;52.530;13.304;2023-10-31T07:19:41;13.00;99.90
6724;DHT22;3399;52.530;13.304;2023-10-31T07:22:07;12.90;99.90
6724;DHT22;3399;52.530;13.304;2023-10-31T07:24:32;12.60;99.90
6724;DHT22;3399;52.530;13.304;2023-10-31T07:26:58;12.70;99.90
6724;DHT22;3399;52.530;13.304;2023-10-31T07:29:23;12.70;99.90
6724;DHT22;3399;52.530;13.304;2023-10-31T07:31:49;12.80;99.90
6724;DHT22;3399;52.530;13.304;2023-10-31T07:34:14;12.90;99.90
6724;DHT22;3399;52.530;13.304;2023-10-31T07:36:41;12.90;99.90
6724;DHT22;3399;52.530;13.304;2023-10-31T07:39:06;12.90;99.90
6724;DHT22;3399;52.530;13.304;2023-10-31T07:41:32;12.90;99.90
6724;DHT22;3399;52.530;13.304;2023-10-31T07:43:58;13.10;99.90
6724;DHT22;3399;52.530;13.304;2023-10-31T07:46:23;13.10;99.90
6724;DHT22;3399;52.530;13.304;2023-10-31T07:48:49;13.20;99.90
6724;DHT22;3399;52.530;13.304;2023-10-31T07:51:14;13.30;99.90
6724;DHT22;3399;52.530;13.304;2023-10-31T07:53:41;13.20;99.90
6724;DHT22;3399;52.530;13.304;2023-10-31T07:56:17;13.20;99.90
6724;DHT22;3399;52.530;13.304;2023-10-31T07:58:44;13.10;99.90
6724;DHT22;3399;52.530;13.304;2023-10-31T08:01:10;13.00;99.90
6724;DHT22;3399;52.530;13.304;2023-10-31T08:03:38;13.10;99.90
6724;DHT22;3399;52.530;13.304;2023-10-31T08:06:05;13.10;99.90
6724;DHT22;3399;52.530;13.304;2023-10-31T08:08:31;13.00;99.90
6724;DHT22;3399;52.530;13.304;2023-10-31T08:10:56;12.90;99.90
6724;DHT22;3399;52.530;13.304;2023-10-31T08:13:24;13.00;99.90
6724;DHT22;3399;52.530;13.304;2023-10-31T08:15:49;13.00;99.90
6724;DHT22;3399;52.530;13.304;2023-10-31T08:18:15;13.00;99.90
6724;DHT22;3399;52.530;13.304;2023-10-31T08:20:40;13.00;99.90
6724;DHT22;3399;52.530;13.304;2023-10-31T08:23:06;13.00;99.90
6724;DHT22;3399;52.530;13.304;2023-10-31T08:25:31;13.20;99.90
6724;DHT22;3399;52.530;13.304;2023-10-31T08:27:57;13.00;99.90
6724;DHT22;3399;52.530;13.304;2023-10-31T08:30:22;13.00;99.90
6724;DHT22;3399;52.530;13.304;2023-10-31T08:32:48;12.90;99.90
6724;DHT22;3399;52.530;13.304;2023-10-31T08:35:13;12.80;99.90
6724;DHT22;3399;52.530;13.304;2023-10-31T08:37:39;12.70;99.90
6724;DHT22;3399;52.530;13.304;2023-10-31T08:40:05;12.40;99.90
6724;DHT22;3399;52.530;13.304;2023-10-31T08:42:31;12.40;99.90
6724;DHT22;3399;52.530;13.304;2023-10-31T08:44:56;12.50;99.90
6724;DHT22;3399;52.530;13.304;2023-10-31T08:47:22;12.40;99.90
6724;DHT22;3399;52.530;13.304;2023-10-31T08:49:48;12.30;99.90
6724;DHT22;3399;52.530;13.304;2023-10-31T08:52:14;12.40;99.90
6724;DHT22;3399;52.530;13.304;2023-10-31T08:54:39;12.40;99.90
6724;DHT22;3399;52.530;13.304;2023-10-31T08:57:05;12.40;99.90
6724;DHT22;3399;52.530;13.304;2023-10-31T08:59:30;12.60;99.90
6724;DHT22;3399;52.530;13.304;2023-10-31T09:01:56;12.60;99.90
6724;DHT22;3399;52.530;13.304;2023-10-31T09:04:21;12.50;99.90
6724;DHT22;3399;52.530;13.304;2023-10-31T09:06:47;12.60;99.90
6724;DHT22;3399;52.530;13.304;2023-10-31T09:09:13;12.50;99.90
6724;DHT22;3399;52.530;13.304;2023-10-31T09:11:38;12.60;99.90
6724;DHT22;3399;52.530;13.304;2023-10-31T09:14:04;12.60;99.90
6724;DHT22;3399;52.530;13.304;2023-10-31T09:16:30;12.70;99.90
6724;DHT22;3399;52.530;13.304;2023-10-31T09:18:55;12.70;99.90
6724;DHT22;3399;52.530;13.304;2023-10-31T09:21:21;12.70;99.90
6724;DHT22;3399;52.530;13.304;2023-10-31T09:23:47;12.80;99.90
6724;DHT22;3399;52.530;13.304;2023-10-31T09:26:12;12.70;99.90
6724;DHT22;3399;52.530;13.304;2023-10-31T09:28:38;12.70;99.90
6724;DHT22;3399;52.530;13.304;2023-10-31T09:31:04;12.80;99.90
6724;DHT22;3399;52.530;13.304;2023-10-31T09:33:30;12.80;99.90
6724;DHT22;3399;52.530;13.304;2023-10-31T09:35:56;12.70;99.90
6724;DHT22;3399;52.530;13.304;2023-10-31T09:38:21;12.60;99.90
6724;DHT22;3399;52.530;13.304;2023-10-31T09:40:46;12.60;99.90
6724;DHT22;3399;52.530;13.304;2023-10-31T09:43:12;12.50;99.90
6724;DHT22;3399;52.530;13.304;2023-10-31T09:45:37;12.50;99.90
6724;DHT22;3399;52.530;13.304;2023-10-31T09:48:03;12.70;99.90
6724;DHT22;3399;52.530;13.304;2023-10-31T09:50:30;12.70;99.90
6724;DHT22;3399;52.530;13.304;2023-10-31T09:52:56;12.80;99.90
6724;DHT22;3399;52.530;13.304;2023-10-31T09:55:22;12.80;99.90
6724;DHT22;3399;52.530;13.304;2023-10-31T09:57:47;12.80;99.90
6724;DHT22;3399;52.530;13.304;2023-10-31T10:00:13;12.90;99.90
6724;DHT22;3399;52.530;13.304;2023-10-31T10:02:40;12.80;99.90
6724;DHT22;3399;52.530;13.304;2023-10-31T10:05:05;12.90;99.90
6724;DHT22;3399;52.530;13.304;2023-10-31T10:07:33;12.90;99.90
6724;DHT22;3399;52.530;13.304;2023-10-31T10:09:59;12.90;99.90
6724;DHT22;3399;52.530;13.304;2023-10-31T10:12:26;12.80;99.90
6724;DHT22;3399;52.530;13.304;2023-10-31T10:14:52;12.90;99.90
6724;DHT22;3399;52.530;13.304;2023-10-31T10:17:21;12.90;99.90
6724;DHT22;3399;52.530;13.304;2023-10-31T10:19:46;13.00;99.90
6724;DHT22;3399;52.530;13.304;2023-10-31T10:22:12;13.00;99.90
6724;DHT22;3399;52.530;13.304;2023-10-31T10:24:40;12.90;99.90
6724;DHT22;3399;52.530;13.304;2023-10-31T10:27:07;13.00;99.90
6724;DHT22;3399;52.530;13.304;2023-10-31T10:29:34;13.20;99.90
6724;DHT22;3399;52.530;13.304;2023-10-31T10:31:59;13.40;99.90
6724;DHT22;3399;52.530;13.304;2023-10-31T10:34:24;13.50;99.90
6724;DHT22;3399;52.530;13.304;2023-10-31T10:36:50;13.60;99.90
6724;DHT22;3399;52.530;13.304;2023-10-31T10:39:21;13.60;99.90
6724;DHT22;3399;52.530;13.304;2023-10-31T10:41:52;13.60;99.90
6724;DHT22;3399;52.530;13.304;2023-10-31T10:46:58;13.70;99.90
6724;DHT22;3399;52.530;13.304;2023-10-31T10:49:27;13.70;99.90
6724;DHT22;3399;52.530;13.304;2023-10-31T10:51:58;13.80;99.90
6724;DHT22;3399;52.530;13.304;2023-10-31T10:54:44;13.80;99.90
6724;DHT22;3399;52.530;13.304;2023-10-31T10:57:15;13.60;99.90
6724;DHT22;3399;52.530;13.304;2023-10-31T10:59:49;13.50;99.90
6724;DHT22;3399;52.530;13.304;2023-10-31T11:02:18;13.70;99.90
6724;DHT22;3399;52.530;13.304;2023-10-31T11:04:44;13.60;99.90
6724;DHT22;3399;52.530;13.304;2023-10-31T11:07:10;13.80;99.90
6724;DHT22;3399;52.530;13.304;2023-10-31T11:09:37;13.60;99.90
6724;DHT22;3399;52.530;13.304;2023-10-31T11:12:04;13.90;99.90
6724;DHT22;3399;52.530;13.304;2023-10-31T11:14:30;13.80;99.90
6724;DHT22;3399;52.530;13.304;2023-10-31T11:17:01;13.80;99.90
6724;DHT22;3399;52.530;13.304;2023-10-31T11:19:29;13.70;99.90
6724;DHT22;3399;52.530;13.304;2023-10-31T11:21:58;13.60;99.90
6724;DHT22;3399;52.530;13.304;2023-10-31T11:24:33;13.60;99.90
6724;DHT22;3399;52.530;13.304;2023-10-31T11:27:01;13.50;99.90
6724;DHT22;3399;52.530;13.304;2023-10-31T11:29:27;13.50;99.90
6724;DHT22;3399;52.530;13.304;2023-10-31T11:31:56;13.30;99.90
6724;DHT22;3399;52.530;13.304;2023-10-31T11:34:22;13.30;99.90
6724;DHT22;3399;52.530;13.304;2023-10-31T11:36:48;13.30;99.90
6724;DHT22;3399;52.530;13.304;2023-10-31T11:39:19;13.40;99.90
6724;DHT22;3399;52.530;13.304;2023-10-31T11:41:50;13.30;99.90
6724;DHT22;3399;52.530;13.304;2023-10-31T11:44:16;13.40;99.90
6724;DHT22;3399;52.530;13.304;2023-10-31T11:46:42;13.30;99.90
6724;DHT22;3399;52.530;13.304;2023-10-31T11:49:08;13.30;99.90
6724;DHT22;3399;52.530;13.304;2023-10-31T11:51:33;13.30;99.90
6724;DHT22;3399;52.530;13.304;2023-10-31T11:54:02;13.40;99.90
6724;DHT22;3399;52.530;13.304;2023-10-31T11:56:28;13.40;99.90
6724;DHT22;3399;52.530;13.304;2023-10-31T11:59:01;13.80;99.90
6724;DHT22;3399;52.530;13.304;2023-10-31T12:01:27;13.90;99.90
6724;DHT22;3399;52.530;13.304;2023-10-31T12:03:53;13.80;99.90
6724;DHT22;3399;52.530;13.304;2023-10-31T12:06:19;13.70;99.90
6724;DHT22;3399;52.530;13.304;2023-10-31T12:08:47;13.60;99.90
6724;DHT22;3399;52.530;13.304;2023-10-31T12:16:18;13.30;99.90
6724;DHT22;3399;52.530;13.304;2023-10-31T12:18:43;13.30;99.90
6724;DHT22;3399;52.530;13.304;2023-10-31T12:21:09;13.40;99.90
6724;DHT22;3399;52.530;13.304;2023-10-31T12:23:36;13.30;99.90
6724;DHT22;3399;52.530;13.304;2023-10-31T12:26:02;13.40;99.90
6724;DHT22;3399;52.530;13.304;2023-10-31T12:28:27;13.10;99.90
6724;DHT22;3399;52.530;13.304;2023-10-31T12:30:55;13.10;99.90
6724;DHT22;3399;52.530;13.304;2023-10-31T12:33:24;13.10;99.90
6724;DHT22;3399;52.530;13.304;2023-10-31T12:35:52;13.10;99.90
6724;DHT22;3399;52.530;13.304;2023-10-31T12:38:21;13.30;99.90
6724;DHT22;3399;52.530;13.304;2023-10-31T12:40:46;13.40;99.90
6724;DHT22;3399;52.530;13.304;2023-10-31T12:43:12;13.40;99.90
6724;DHT22;3399;52.530;13.304;2023-10-31T12:45:38;13.30;99.90
6724;DHT22;3399;52.530;13.304;2023-10-31T12:48:08;13.20;99.90
6724;DHT22;3399;52.530;13.304;2023-10-31T12:50:36;13.10;99.90
6724;DHT22;3399;52.530;13.304;2023-10-31T12:53:03;13.20;99.90
6724;DHT22;3399;52.530;13.304;2023-10-31T12:55:31;13.10;99.90
6724;DHT22;3399;52.530;13.304;2023-10-31T12:58:03;13.30;99.90
6724;DHT22;3399;52.530;13.304;2023-10-31T13:00:33;13.40;99.90
6724;DHT22;3399;52.530;13.304;2023-10-31T13:03:04;13.30;99.90
6724;DHT22;3399;52.530;13.304;2023-10-31T13:05:30;13.10;99.90
6724;DHT22;3399;52.530;13.304;2023-10-31T13:07:57;13.10;99.90
6724;DHT22;3399;52.530;13.304;2023-10-31T13:10:24;13.00;99.90
6724;DHT22;3399;52.530;13.304;2023-10-31T13:12:50;12.90;99.90
6724;DHT22;3399;52.530;13.304;2023-10-31T13:15:17;13.00;99.90
6724;DHT22;3399;52.530;13.304;2023-10-31T13:17:44;13.10;99.90
6724;DHT22;3399;52.530;13.304;2023-10-31T13:20:11;13.10;99.90
6724;DHT22;3399;52.530;13.304;2023-10-31T13:22:37;13.10;99.90
6724;DHT22;3399;52.530;13.304;2023-10-31T13:25:04;13.20;99.90
6724;DHT22;3399;52.530;13.304;2023-10-31T13:27:31;13.10;99.90
6724;DHT22;3399;52.530;13.304;2023-10-31T13:29:57;13.20;99.90
6724;DHT22;3399;52.530;13.304;2023-10-31T13:32:23;13.10;99.90
6724;DHT22;3399;52.530;13.304;2023-10-31T13:34:48;13.20;99.90
6724;DHT22;3399;52.530;13.304;2023-10-31T13:37:14;13.00;99.90
6724;DHT22;3399;52.530;13.304;2023-10-31T13:39:40;13.00;99.90
6724;DHT22;3399;52.530;13.304;2023-10-31T13:42:05;12.90;99.90
6724;DHT22;3399;52.530;13.304;2023-10-31T13:44:31;12.70;99.90
6724;DHT22;3399;52.530;13.304;2023-10-31T13:46:56;12.60;99.90
6724;DHT22;3399;52.530;13.304;2023-10-31T13:49:22;12.50;99.90
6724;DHT22;3399;52.530;13.304;2023-10-31T13:51:47;12.40;99.90
6724;DHT22;3399;52.530;13.304;2023-10-31T13:54:14;12.40;99.90
6724;DHT22;3399;52.530;13.304;2023-10-31T13:56:40;12.30;99.90
6724;DHT22;3399;52.530;13.304;2023-10-31T13:59:06;12.30;99.90
6724;DHT22;3399;52.530;13.304;2023-10-31T14:01:31;12.20;99.90
6724;DHT22;3399;52.530;13.304;2023-10-31T14:03:57;12.30;99.90
6724;DHT22;3399;52.530;13.304;2023-10-31T14:06:22;12.40;99.90
6724;DHT22;3399;52.530;13.304;2023-10-31T14:08:51;12.40;99.90
6724;DHT22;3399;52.530;13.304;2023-10-31T14:11:16;12.40;99.90
6724;DHT22;3399;52.530;13.304;2023-10-31T14:13:42;12.40;99.90
6724;DHT22;3399;52.530;13.304;2023-10-31T14:16:10;12.30;99.90
6724;DHT22;3399;52.530;13.304;2023-10-31T14:18:37;12.20;99.90
6724;DHT22;3399;52.530;13.304;2023-10-31T14:21:03;12.20;99.90
6724;DHT22;3399;52.530;13.304;2023-10-31T14:23:28;12.10;99.90
6724;DHT22;3399;52.530;13.304;2023-10-31T14:25:54;11.90;99.90
6724;DHT22;3399;52.530;13.304;2023-10-31T14:28:19;11.80;99.90
6724;DHT22;3399;52.530;13.304;2023-10-31T14:30:45;11.80;99.90
6724;DHT22;3399;52.530;13.304;2023-10-31T14:33:10;11.60;99.90
6724;DHT22;3399;52.530;13.304;2023-10-31T14:35:36;11.60;99.90
6724;DHT22;3399;52.530;13.304;2023-10-31T14:38:01;11.60;99.90
6724;DHT22;3399;52.530;13.304;2023-10-31T14:40:27;11.50;99.90
6724;DHT22;3399;52.530;13.304;2023-10-31T14:42:52;11.30;99.90
6724;DHT22;3399;52.530;13.304;2023-10-31T14:45:18;11.40;99.90
6724;DHT22;3399;52.530;13.304;2023-10-31T14:47:43;11.20;99.90
6724;DHT22;3399;52.530;13.304;2023-10-31T14:50:09;11.30;99.90
6724;DHT22;3399;52.530;13.304;2023-10-31T14:52:35;11.40;99.90
6724;DHT22;3399;52.530;13.304;2023-10-31T14:55:00;11.30;99.90
6724;DHT22;3399;52.530;13.304;2023-10-31T14:57:26;11.20;99.90
6724;DHT22;3399;52.530;13.304;2023-10-31T14:59:51;11.30;99.90
6724;DHT22;3399;52.530;13.304;2023-10-31T15:02:17;11.30;99.90
6724;DHT22;3399;52.530;13.304;2023-10-31T15:04:42;11.50;99.90
6724;DHT22;3399;52.530;13.304;2023-10-31T15:07:08;11.50;99.90
6724;DHT22;3399;52.530;13.304;2023-10-31T15:09:33;11.40;99.90
6724;DHT22;3399;52.530;13.304;2023-10-31T15:11:59;11.30;99.90
6724;DHT22;3399;52.530;13.304;2023-10-31T15:14:24;11.10;99.90
6724;DHT22;3399;52.530;13.304;2023-10-31T15:16:50;11.00;99.90
6724;DHT22;3399;52.530;13.304;2023-10-31T15:19:15;11.00;99.90
6724;DHT22;3399;52.530;13.304;2023-10-31T15:21:41;11.10;99.90
6724;DHT22;3399;52.530;13.304;2023-10-31T15:24:06;11.00;99.90
6724;DHT22;3399;52.530;13.304;2023-10-31T15:26:34;11.10;99.90
6724;DHT22;3399;52.530;13.304;2023-10-31T15:29:00;11.10;99.90
6724;DHT22;3399;52.530;13.304;2023-10-31T15:31:25;11.30;99.90
6724;DHT22;3399;52.530;13.304;2023-10-31T15:33:51;11.30;99.90
6724;DHT22;3399;52.530;13.304;2023-10-31T15:36:16;11.30;99.90
6724;DHT22;3399;52.530;13.304;2023-10-31T15:38:42;11.40;99.90
6724;DHT22;3399;52.530;13.304;2023-10-31T15:41:07;11.40;99.90
6724;DHT22;3399;52.530;13.304;2023-10-31T15:43:33;11.50;99.90
6724;DHT22;3399;52.530;13.304;2023-10-31T15:45:59;11.50;99.90